Time;durP1;ratioP1;P1;durP2;ratioP2;P2;SDS_P1;SDS_P2;PMS_P1;PMS_P2;Temp;Humidity;BMP_temperature;BMP_pressure;BME280_temperature;BME280_humidity;BME280_pressure;Samples;Min_cycle;Max_cycle;Signal;HPM_P1;HPM_P2
2023/03/15 00:00:12;;;;;;;1.10;0.80;;;18.70;53.80;;;;;;6278403;28;20032;-69
2023/03/15 00:03:43;;;;;;;1.33;0.70;;;18.70;53.80;;;;;;6321397;28;20071;-69
2023/03/15 00:07:02;;;;;;;1.65;0.85;;;18.70;53.80;;;;;;6303416;28;20035;-69
2023/03/15 00:10:47;;;;;;;1.30;0.65;;;18.70;53.80;;;;;;6302971;28;20036;-69
2023/03/15 00:14:04;;;;;;;1.40;0.63;;;18.70;53.80;;;;;;6303114;28;20024;-69
2023/03/15 00:21:42;;;;;;;1.83;0.80;;;18.70;53.80;;;;;;6316166;28;20485;-69
2023/03/15 00:25:18;;;;;;;1.48;0.73;;;18.60;53.70;;;;;;6302636;28;20123;-69
2023/03/15 00:29:06;;;;;;;1.25;0.70;;;18.60;53.70;;;;;;6298117;28;20145;-69
2023/03/15 00:36:14;;;;;;;1.52;0.98;;;18.70;53.80;;;;;;6309440;28;20216;-69
2023/03/15 00:43:58;;;;;;;0.95;0.57;;;18.70;53.80;;;;;;6242513;28;20038;-68
2023/03/15 00:47:32;;;;;;;2.70;0.90;;;18.70;53.80;;;;;;6214661;28;20155;-69
2023/03/15 00:51:17;;;;;;;;;;;;;;;;;;;;;
2023/03/15 00:54:58;;;;;;;1.30;0.70;;;18.70;53.80;;;;;;6243257;28;20175;-71
2023/03/15 00:59:04;;;;;;;1.23;0.55;;;18.60;53.70;;;;;;6226290;28;20036;-70
2023/03/15 01:02:52;;;;;;;0.93;0.63;;;18.60;53.70;;;;;;6232321;28;20049;-69
2023/03/15 01:15:02;;;;;;;1.73;0.70;;;18.60;53.70;;;;;;6142852;29;20032;-70
2023/03/15 01:19:13;;;;;;;1.70;0.80;;;18.70;53.80;;;;;;6145724;29;20188;-70
2023/03/15 01:27:40;;;;;;;;;;;;;;;;;;;;;
2023/03/15 01:31:24;;;;;;;2.17;0.82;;;18.70;53.80;;;;;;6216673;28;20033;-69
2023/03/15 01:39:35;;;;;;;1.30;0.70;;;18.60;53.70;;;;;;6217382;28;20037;-69
2023/03/15 01:48:02;;;;;;;;;;;;;;;;;;;;;
2023/03/15 01:51:47;;;;;;;2.35;0.80;;;18.70;53.80;;;;;;6215087;28;20566;-69
2023/03/15 01:55:19;;;;;;;1.63;0.60;;;18.60;53.70;;;;;;6215419;28;20030;-69
2023/03/15 01:58:50;;;;;;;1.70;0.77;;;18.60;53.70;;;;;;6276486;28;20028;-69
2023/03/15 02:02:49;;;;;;;;;;;;;;;;;;;;;
2023/03/15 02:06:19;;;;;;;;;;;;;;;;;;;;;
2023/03/15 02:09:53;;;;;;;1.10;0.73;;;18.70;53.80;;;;;;6319775;28;20157;-69
2023/03/15 02:13:44;;;;;;;1.10;0.68;;;18.70;53.80;;;;;;6295036;28;20028;-69
2023/03/15 02:17:26;;;;;;;1.00;0.55;;;18.60;53.70;;;;;;6300988;28;20446;-69
2023/03/15 02:21:03;;;;;;;;;;;;;;;;;;;;;
2023/03/15 02:24:10;;;;;;;;;;;18.70;53.80;;;;;;6324943;28;20040;-68
2023/03/15 02:27:35;;;;;;;1.58;0.60;;;18.60;53.70;;;;;;6306259;28;19911;-69
2023/03/15 02:30:48;;;;;;;2.35;0.77;;;18.60;53.70;;;;;;6304888;28;20032;-69
2023/03/15 02:34:06;;;;;;;1.10;0.60;;;18.60;53.70;;;;;;6305641;28;20030;-69
2023/03/15 02:37:31;;;;;;;;;;;;;;;;;;;;;
2023/03/15 02:40:47;;;;;;;1.83;0.52;;;18.70;53.80;;;;;;6324571;28;20501;-68
2023/03/15 02:44:13;;;;;;;1.33;0.60;;;18.60;53.70;;;;;;6305705;28;20567;-69
2023/03/15 02:47:49;;;;;;;1.00;0.50;;;18.70;53.80;;;;;;6304572;28;20365;-69
2023/03/15 02:51:05;;;;;;;1.80;1.02;;;18.70;53.70;;;;;;6303936;28;20043;-69
2023/03/15 02:54:15;;;;;;;1.02;0.60;;;18.70;53.80;;;;;;6302230;28;20126;-68
2023/03/15 02:57:31;;;;;;;2.80;0.85;;;18.70;53.70;;;;;;6323785;28;20024;-69
2023/03/15 03:00:52;;;;;;;1.02;0.50;;;18.60;53.60;;;;;;6323603;28;20038;-69
2023/03/15 03:04:10;;;;;;;1.35;0.60;;;18.60;53.60;;;;;;6304170;28;20070;-71
2023/03/15 03:07:24;;;;;;;1.00;0.60;;;18.70;53.70;;;;;;6305270;28;20388;-70
2023/03/15 03:10:58;;;;;;;;;;;18.60;53.60;;;;;;6305647;28;20032;-70
2023/03/15 03:14:25;;;;;;;0.93;0.57;;;18.70;53.70;;;;;;6323430;28;19942;-69
2023/03/15 03:17:42;;;;;;;2.03;0.50;;;18.60;53.60;;;;;;6304819;28;20028;-68
2023/03/15 03:20:58;;;;;;;1.30;0.60;;;18.70;53.70;;;;;;6304477;28;20048;-69
2023/03/15 03:24:15;;;;;;;1.15;0.55;;;18.60;53.60;;;;;;6323160;28;20176;-68
2023/03/15 03:27:36;;;;;;;2.00;0.68;;;18.70;53.70;;;;;;6323129;28;20477;-68
2023/03/15 03:30:52;;;;;;;0.70;0.45;;;18.60;53.60;;;;;;6322785;28;20099;-68
2023/03/15 03:34:33;;;;;;;0.60;0.57;;;18.60;53.60;;;;;;6321414;28;20556;-71
2023/03/15 03:37:53;;;;;;;1.30;0.55;;;18.70;53.70;;;;;;6322770;28;20024;-70
2023/03/15 03:41:16;;;;;;;0.75;0.60;;;18.60;53.60;;;;;;6304311;28;20727;-70
2023/03/15 03:44:36;;;;;;;1.20;0.60;;;18.60;53.60;;;;;;6304396;28;20077;-70
2023/03/15 03:47:56;;;;;;;1.13;0.52;;;18.60;53.60;;;;;;6302823;28;20120;-70
2023/03/15 03:51:04;;;;;;;0.95;0.57;;;18.60;53.60;;;;;;6304004;28;20023;-70
2023/03/15 03:54:59;;;;;;;1.35;0.70;;;18.70;53.70;;;;;;6322355;28;20074;-68
2023/03/15 03:58:30;;;;;;;0.52;0.50;;;18.60;53.60;;;;;;6301163;28;20032;-70
2023/03/15 05:43:17;;;;;;;1.10;0.60;;;18.70;53.50;;;;;;6315896;28;20068;-71
2023/03/15 05:46:18;;;;;;;0.80;0.45;;;18.60;53.40;;;;;;6315108;28;20034;-71
2023/03/15 05:49:19;;;;;;;0.75;0.47;;;18.70;53.50;;;;;;6318895;28;20024;-70
2023/03/15 05:52:20;;;;;;;1.65;0.60;;;18.60;53.30;;;;;;6318902;28;20023;-68
2023/03/15 05:55:21;;;;;;;1.23;0.57;;;18.60;53.30;;;;;;6300025;28;20028;-69
2023/03/15 05:58:22;;;;;;;4.38;0.60;;;18.70;53.40;;;;;;6319036;28;20020;-68
2023/03/15 06:01:23;;;;;;;1.27;0.65;;;18.60;53.30;;;;;;6300388;28;20111;-71
2023/03/15 06:04:24;;;;;;;0.85;0.38;;;18.70;53.40;;;;;;6319058;28;20024;-71
2023/03/15 06:07:24;;;;;;;1.98;0.65;;;18.70;53.40;;;;;;6300748;28;20435;-69
2023/03/15 06:10:25;;;;;;;1.23;0.70;;;18.60;53.20;;;;;;6300840;28;20257;-68
2023/03/15 06:13:26;;;;;;;1.20;0.50;;;18.70;53.40;;;;;;6318753;28;20031;-69
2023/03/15 06:16:27;;;;;;;0.93;0.60;;;18.60;53.20;;;;;;6318935;28;20020;-69
2023/03/15 06:19:28;;;;;;;1.02;0.50;;;18.60;53.20;;;;;;6318695;28;20024;-68
2023/03/15 06:22:29;;;;;;;1.30;0.50;;;18.60;53.20;;;;;;6318646;28;20525;-66
2023/03/15 06:25:29;;;;;;;1.73;0.60;;;18.70;53.30;;;;;;6318751;28;20024;-67
2023/03/15 06:28:30;;;;;;;2.38;0.70;;;18.70;53.30;;;;;;6318550;28;20024;-67
2023/03/15 06:31:31;;;;;;;1.92;0.60;;;18.60;53.20;;;;;;6318255;28;20025;-67
2023/03/15 06:34:31;;;;;;;1.85;0.60;;;18.70;53.30;;;;;;6318960;28;20024;-66
2023/03/15 06:37:34;;;;;;;0.75;0.40;;;18.70;53.30;;;;;;6299527;28;20501;-68
2023/03/15 06:40:35;;;;;;;1.02;0.60;;;18.70;53.30;;;;;;6276571;28;20017;-67
2023/03/15 06:43:35;;;;;;;1.33;0.60;;;18.70;53.40;;;;;;6267102;28;20126;-67
2023/03/15 06:46:37;;;;;;;1.25;0.47;;;18.70;53.40;;;;;;6267318;28;20498;-67
2023/03/15 06:49:38;;;;;;;1.40;0.40;;;18.70;53.40;;;;;;6268009;28;20674;-67
2023/03/15 06:52:38;;;;;;;1.48;0.60;;;18.70;53.40;;;;;;6268419;28;20064;-66
2023/03/15 06:55:39;;;;;;;0.65;0.40;;;18.70;53.40;;;;;;6268711;28;20017;-67
2023/03/15 06:58:40;;;;;;;0.70;0.50;;;18.70;53.40;;;;;;6268841;28;20028;-67
2023/03/15 07:01:40;;;;;;;1.38;0.60;;;18.70;53.40;;;;;;6270340;28;20025;-67
2023/03/15 07:04:43;;;;;;;1.15;0.50;;;18.70;53.40;;;;;;6270724;28;20474;-67
2023/03/15 07:07:44;;;;;;;0.60;0.50;;;18.70;53.40;;;;;;6256820;28;20025;-69
2023/03/15 07:10:45;;;;;;;1.73;0.70;;;18.70;53.40;;;;;;6275414;28;20036;-69
2023/03/15 07:13:46;;;;;;;1.92;0.63;;;18.70;53.40;;;;;;6274199;28;20086;-67
2023/03/15 07:16:47;;;;;;;1.30;0.60;;;18.70;53.40;;;;;;6274074;28;20367;-67
2023/03/15 07:19:48;;;;;;;1.75;0.70;;;18.70;53.40;;;;;;6273747;28;20028;-67
2023/03/15 07:22:49;;;;;;;1.00;0.47;;;18.70;53.40;;;;;;6275353;28;20100;-67
2023/03/15 07:25:49;;;;;;;1.77;0.60;;;18.70;53.40;;;;;;6275020;28;20036;-68
2023/03/15 07:28:50;;;;;;;1.15;0.70;;;18.70;53.40;;;;;;6256882;28;20025;-67
2023/03/15 07:31:51;;;;;;;1.25;0.52;;;18.70;53.40;;;;;;6274766;28;20409;-67
2023/03/15 07:34:51;;;;;;;2.67;0.88;;;18.70;53.40;;;;;;6273759;28;20017;-67
2023/03/15 07:37:52;;;;;;;1.00;0.40;;;18.70;53.40;;;;;;6274749;28;20394;-67
2023/03/15 07:40:53;;;;;;;2.53;0.70;;;18.70;53.40;;;;;;6274726;28;20060;-67
2023/03/15 07:43:53;;;;;;;1.38;0.60;;;18.70;53.40;;;;;;6274478;28;20048;-67
2023/03/15 07:46:54;;;;;;;1.17;0.60;;;18.70;53.40;;;;;;6273281;28;20051;-67
2023/03/15 07:49:55;;;;;;;0.80;0.50;;;18.70;53.40;;;;;;6274438;28;20500;-67
2023/03/15 07:52:56;;;;;;;1.98;0.50;;;18.70;53.40;;;;;;6256361;28;20036;-67
2023/03/15 07:55:56;;;;;;;1.17;0.43;;;18.70;53.40;;;;;;6274323;28;20378;-68
2023/03/15 07:58:57;;;;;;;1.98;0.60;;;18.70;53.40;;;;;;6272735;28;20033;-69
2023/03/15 08:01:58;;;;;;;2.00;0.70;;;18.70;53.40;;;;;;6274045;28;20029;-68
2023/03/15 08:04:58;;;;;;;0.80;0.52;;;18.70;53.40;;;;;;6273961;28;20482;-67
2023/03/15 08:07:59;;;;;;;1.25;0.50;;;18.70;53.40;;;;;;6274044;28;20032;-68
2023/03/15 08:11:00;;;;;;;1.77;0.63;;;18.70;53.40;;;;;;6272591;28;20032;-67
2023/03/15 08:14:01;;;;;;;2.95;1.08;;;18.70;53.40;;;;;;6274048;28;20025;-68
2023/03/15 08:17:01;;;;;;;1.25;0.68;;;18.70;53.40;;;;;;6273279;28;20100;-68
2023/03/15 08:20:03;;;;;;;1.52;0.65;;;18.70;53.40;;;;;;6273739;28;20366;-68
2023/03/15 08:23:05;;;;;;;0.50;0.40;;;18.70;53.40;;;;;;6273854;28;20393;-70
2023/03/15 08:26:06;;;;;;;2.22;0.63;;;18.70;53.40;;;;;;6255712;28;20032;-67
2023/03/15 08:29:07;;;;;;;1.08;0.60;;;18.70;53.40;;;;;;6271955;28;20527;-67
2023/03/15 08:32:08;;;;;;;2.05;0.70;;;18.70;53.40;;;;;;6273639;28;20017;-68
2023/03/15 08:35:11;;;;;;;1.00;0.50;;;18.70;53.40;;;;;;6271982;28;20116;-68
2023/03/15 08:38:12;;;;;;;1.30;0.60;;;18.70;53.40;;;;;;6273378;28;20028;-68
2023/03/15 08:41:12;;;;;;;2.50;0.60;;;18.70;53.40;;;;;;6273210;28;20025;-68
2023/03/15 08:44:13;;;;;;;1.77;0.60;;;18.70;53.40;;;;;;6273229;28;20060;-67
2023/03/15 08:47:14;;;;;;;1.58;0.65;;;18.70;53.40;;;;;;6273039;28;20052;-68
2023/03/15 08:50:16;;;;;;;1.33;0.73;;;18.70;53.40;;;;;;6273095;28;20025;-68
2023/03/15 08:53:16;;;;;;;2.17;0.60;;;18.70;53.40;;;;;;6272920;28;20036;-68
2023/03/15 08:56:18;;;;;;;0.95;0.55;;;18.70;53.40;;;;;;6272971;28;20717;-68
2023/03/15 08:59:18;;;;;;;1.20;0.68;;;18.70;53.40;;;;;;6272746;28;20029;-70
2023/03/15 09:02:21;;;;;;;2.83;0.63;;;18.70;53.40;;;;;;6272721;28;20028;-70
2023/03/15 09:05:23;;;;;;;0.63;0.38;;;18.70;53.40;;;;;;6272568;28;20385;-70
2023/03/15 09:08:25;;;;;;;1.30;0.70;;;18.70;53.40;;;;;;6273262;28;20170;-71
2023/03/15 09:11:26;;;;;;;0.77;0.40;;;18.70;53.40;;;;;;6271707;28;20060;-70
2023/03/15 09:14:27;;;;;;;1.30;0.52;;;18.70;53.40;;;;;;6258037;28;20507;-70
2023/03/15 09:17:27;;;;;;;0.85;0.40;;;18.70;53.40;;;;;;6277835;28;20033;-70
2023/03/15 09:20:32;;;;;;;0.70;0.40;;;18.70;53.40;;;;;;6277783;28;20025;-70
2023/03/15 09:23:55;;;;;;;1.55;0.60;;;18.70;53.40;;;;;;6296062;28;20028;-70
2023/03/15 09:27:31;;;;;;;1.63;0.75;;;18.70;53.30;;;;;;6295422;28;20033;-70
2023/03/15 09:30:36;;;;;;;0.73;0.50;;;18.70;53.40;;;;;;6294738;28;20029;-67
2023/03/15 09:33:39;;;;;;;0.73;0.47;;;18.70;53.30;;;;;;6295862;28;20140;-67
2023/03/15 09:36:42;;;;;;;0.85;0.47;;;18.70;53.30;;;;;;6295395;28;20028;-67
2023/03/15 09:39:44;;;;;;;1.10;0.60;;;18.70;53.30;;;;;;6295713;28;20100;-68
2023/03/15 09:42:55;;;;;;;1.35;0.68;;;18.70;53.30;;;;;;6277171;28;20103;-70
2023/03/15 09:46:24;;;;;;;1.20;0.50;;;18.70;53.30;;;;;;6295274;28;20551;-70
2023/03/15 09:49:36;;;;;;;1.70;0.70;;;18.70;53.30;;;;;;6277176;28;20115;-70
2023/03/15 09:52:51;;;;;;;0.70;0.50;;;18.70;53.30;;;;;;6270483;28;20025;-68
2023/03/15 09:55:52;;;;;;;0.93;0.52;;;18.70;53.30;;;;;;6274715;28;20071;-69
2023/03/15 09:59:01;;;;;;;0.70;0.40;;;18.70;54.00;;;;;;6292405;28;20074;-69
2023/03/15 10:02:23;;;;;;;0.98;0.50;;;18.70;53.40;;;;;;6285208;28;20024;-70
2023/03/15 10:05:44;;;;;;;1.08;0.60;;;18.70;53.30;;;;;;6293039;28;20017;-69
2023/03/15 10:08:48;;;;;;;3.00;0.50;;;18.70;53.30;;;;;;6293085;28;20020;-71
2023/03/15 10:12:02;;;;;;;0.77;0.47;;;18.70;53.30;;;;;;6276445;28;20035;-69
2023/03/15 10:15:27;;;;;;;0.80;0.40;;;18.70;53.30;;;;;;6294485;28;20031;-70
2023/03/15 10:19:23;;;;;;;1.60;0.60;;;18.70;53.30;;;;;;6299597;28;20051;-70
2023/03/15 10:26:11;;;;;;;0.85;0.50;;;18.70;53.30;;;;;;6319264;28;20513;-70
2023/03/15 10:29:26;;;;;;;1.08;0.43;;;18.70;53.30;;;;;;6276882;28;20197;-68
2023/03/15 10:32:39;;;;;;;0.85;0.40;;;18.70;53.30;;;;;;6284887;28;20024;-69
2023/03/15 10:35:44;;;;;;;0.43;0.35;;;18.70;53.30;;;;;;6319273;28;20047;-70
2023/03/15 10:38:47;;;;;;;3.97;0.50;;;18.70;53.30;;;;;;6300635;28;20024;-70
2023/03/15 10:41:50;;;;;;;2.35;0.80;;;18.70;53.30;;;;;;6283356;28;20115;-71
2023/03/15 10:44:51;;;;;;;0.85;0.50;;;18.70;53.30;;;;;;6299334;28;20410;-70
2023/03/15 10:47:53;;;;;;;0.65;0.45;;;18.70;53.30;;;;;;6290642;28;20126;-70
2023/03/15 10:50:55;;;;;;;1.52;0.60;;;18.70;53.30;;;;;;6276414;28;20060;-68
2023/03/15 10:54:03;;;;;;;1.35;0.60;;;18.70;53.30;;;;;;6310003;28;20512;-68
2023/03/15 10:57:12;;;;;;;0.95;0.60;;;18.70;53.30;;;;;;6305369;28;20024;-68
2023/03/15 11:00:35;;;;;;;0.38;0.35;;;18.70;53.30;;;;;;6305394;28;20488;-69
2023/03/15 11:03:40;;;;;;;1.10;0.50;;;18.80;53.40;;;;;;6313447;28;20024;-68
2023/03/15 11:06:47;;;;;;;3.75;0.68;;;18.70;53.30;;;;;;6323809;28;20016;-68
2023/03/15 11:09:58;;;;;;;1.50;0.55;;;18.70;53.30;;;;;;6304387;28;20089;-69
2023/03/15 11:13:09;;;;;;;1.77;0.70;;;18.70;53.40;;;;;;6287768;28;20024;-68
2023/03/15 11:16:14;;;;;;;0.70;0.40;;;18.70;53.30;;;;;;6324872;28;20444;-68
2023/03/15 11:19:21;;;;;;;1.38;0.47;;;18.70;53.30;;;;;;6301301;28;20024;-70
2023/03/15 11:22:23;;;;;;;0.90;0.70;;;18.70;53.40;;;;;;6282588;28;20028;-68
2023/03/15 11:25:32;;;;;;;1.33;0.50;;;18.70;53.30;;;;;;6305368;28;20031;-68
2023/03/15 11:28:36;;;;;;;0.63;0.45;;;18.80;53.40;;;;;;6284380;28;20025;-71
2023/03/15 11:31:37;;;;;;;0.73;0.53;;;18.70;53.40;;;;;;6297211;28;20039;-68
2023/03/15 11:35:09;;;;;;;0.88;0.47;;;18.70;53.40;;;;;;6295103;28;20507;-69
2023/03/15 11:38:16;;;;;;;1.20;0.60;;;18.80;53.40;;;;;;6278846;28;20016;-71
2023/03/15 11:41:39;;;;;;;1.02;0.60;;;18.70;53.30;;;;;;6297620;28;20458;-71
2023/03/15 11:44:48;;;;;;;1.77;0.50;;;18.80;53.40;;;;;;6321965;28;20051;-70
2023/03/15 11:47:57;;;;;;;1.88;0.57;;;18.70;53.40;;;;;;6288031;28;20497;-69
2023/03/15 11:51:00;;;;;;;0.85;0.50;;;18.70;53.30;;;;;;6281106;28;20454;-71
2023/03/15 11:54:31;;;;;;;1.35;0.52;;;18.70;53.40;;;;;;6275062;28;20449;-71
2023/03/15 11:57:39;;;;;;;0.63;0.50;;;18.70;53.40;;;;;;6276520;28;20119;-71
2023/03/15 12:00:48;;;;;;;0.60;0.52;;;18.70;53.40;;;;;;6284541;28;20541;-69
2023/03/15 12:03:49;;;;;;;1.10;0.40;;;18.70;53.40;;;;;;6300764;28;20078;-68
2023/03/15 12:06:55;;;;;;;0.90;0.40;;;18.70;53.40;;;;;;6320437;28;20020;-68
2023/03/15 12:09:56;;;;;;;2.88;0.38;;;18.80;53.40;;;;;;6291001;28;20039;-69
2023/03/15 12:13:05;;;;;;;0.65;0.50;;;18.70;53.40;;;;;;6294026;28;20024;-69
2023/03/15 12:16:06;;;;;;;0.82;0.60;;;18.70;53.40;;;;;;6318178;28;20039;-69
2023/03/15 12:19:18;;;;;;;0.45;0.35;;;18.80;53.40;;;;;;6288766;28;20374;-69
2023/03/15 12:22:30;;;;;;;1.30;0.50;;;18.70;54.10;;;;;;6274844;28;20027;-71
2023/03/15 12:25:37;;;;;;;1.48;0.50;;;18.70;53.40;;;;;;6293861;28;20118;-71
2023/03/15 12:28:48;;;;;;;0.77;0.65;;;18.80;53.50;;;;;;6295594;28;20035;-71
2023/03/15 12:32:00;;;;;;;0.88;0.50;;;18.70;53.40;;;;;;6299901;28;20051;-69
2023/03/15 12:35:16;;;;;;;0.50;0.40;;;18.80;53.50;;;;;;6274035;28;20031;-70
2023/03/15 12:38:18;;;;;;;;;;;18.70;53.40;;;;;;6294278;28;20463;-69
2023/03/15 12:41:54;;;;;;;0.73;0.43;;;18.70;53.40;;;;;;6313068;28;19950;-69
2023/03/15 12:45:13;;;;;;;;;;;18.70;53.50;;;;;;6246109;28;20045;-70
2023/03/15 12:48:20;;;;;;;2.05;0.70;;;18.80;53.50;;;;;;6292975;28;19923;-71
2023/03/15 12:51:53;;;;;;;1.27;0.38;;;18.70;53.50;;;;;;6294664;28;20077;-68
2023/03/15 12:54:56;;;;;;;0.85;0.52;;;18.70;53.50;;;;;;6304023;28;20017;-68
2023/03/15 12:57:59;;;;;;;0.80;0.50;;;18.80;53.50;;;;;;6297167;28;20067;-70
2023/03/15 13:01:04;;;;;;;0.70;0.50;;;18.80;53.50;;;;;;6288998;28;20495;-70
2023/03/15 13:04:05;;;;;;;0.57;0.43;;;18.80;53.50;;;;;;6300047;28;20028;-70
2023/03/15 13:07:08;;;;;;;0.77;0.47;;;18.70;53.40;;;;;;6274938;28;20072;-70
2023/03/15 13:10:32;;;;;;;1.13;0.50;;;18.80;53.50;;;;;;6291864;28;20020;-71
2023/03/15 13:13:52;;;;;;;1.50;0.73;;;18.80;53.50;;;;;;6307786;28;20036;-70
2023/03/15 13:17:05;;;;;;;0.90;0.60;;;18.80;53.50;;;;;;6293461;28;20021;-71
2023/03/15 13:20:28;;;;;;;0.85;0.60;;;18.80;53.50;;;;;;6301162;28;20116;-70
2023/03/15 13:23:33;;;;;;;0.75;0.60;;;18.80;53.50;;;;;;6300846;28;20027;-71
2023/03/15 13:26:42;;;;;;;0.90;0.60;;;18.80;53.60;;;;;;6303063;28;20077;-70
2023/03/15 13:29:43;;;;;;;1.50;0.65;;;18.80;53.60;;;;;;6287041;28;20059;-71
2023/03/15 13:32:44;;;;;;;0.57;0.40;;;18.80;53.50;;;;;;6294176;28;20425;-71
2023/03/15 13:35:52;;;;;;;0.63;0.40;;;18.80;53.50;;;;;;6280247;28;20024;-71
2023/03/15 13:38:56;;;;;;;0.75;0.47;;;18.80;53.50;;;;;;6295443;28;20031;-71
2023/03/15 13:42:06;;;;;;;0.60;0.50;;;18.80;53.60;;;;;;6284590;28;20028;-71
2023/03/15 13:45:15;;;;;;;1.38;0.70;;;18.80;53.50;;;;;;6291781;28;20048;-71
2023/03/15 13:48:17;;;;;;;0.95;0.40;;;18.80;53.50;;;;;;6274597;28;20028;-71
2023/03/15 13:51:36;;;;;;;1.30;0.60;;;18.80;53.50;;;;;;6297040;28;20123;-71
2023/03/15 13:54:37;;;;;;;0.63;0.50;;;18.80;53.50;;;;;;6309479;28;20501;-71
2023/03/15 13:57:39;;;;;;;0.73;0.40;;;18.80;53.50;;;;;;6306383;28;20024;-71
2023/03/15 14:00:40;;;;;;;1.05;0.40;;;18.80;53.50;;;;;;6301556;28;20432;-71
2023/03/15 14:03:42;;;;;;;0.85;0.40;;;18.80;53.50;;;;;;6297520;28;20024;-71
2023/03/15 14:06:47;;;;;;;1.05;0.55;;;18.80;53.50;;;;;;6275377;28;20078;-67
2023/03/15 14:09:47;;;;;;;0.60;0.50;;;18.80;54.20;;;;;;6293179;28;20430;-72
2023/03/15 14:12:49;;;;;;;2.28;0.88;;;18.70;53.50;;;;;;6299828;28;20046;-72
2023/03/15 14:15:55;;;;;;;1.98;0.80;;;18.80;52.60;;;;;;6301224;28;20024;-72
2023/03/15 14:19:20;;;;;;;4.43;0.47;;;18.80;53.10;;;;;;6315589;28;20084;-72
2023/03/15 14:22:21;;;;;;;1.90;0.70;;;18.80;53.10;;;;;;6284511;28;20100;-72
2023/03/15 14:25:22;;;;;;;1.70;0.65;;;18.80;53.10;;;;;;6308002;28;20691;-72
2023/03/15 14:28:23;;;;;;;1.83;0.73;;;18.80;53.20;;;;;;6309171;28;20077;-72
2023/03/15 14:31:27;;;;;;;3.90;0.80;;;18.80;53.30;;;;;;6299789;28;20027;-73
2023/03/15 14:34:42;;;;;;;2.00;0.70;;;18.80;53.30;;;;;;6293039;28;20029;-72
2023/03/15 14:37:43;;;;;;;1.08;0.55;;;18.80;53.30;;;;;;6302099;28;20489;-72
2023/03/15 14:40:44;;;;;;;1.45;0.60;;;18.80;53.30;;;;;;6303499;28;20025;-72
2023/03/15 14:43:45;;;;;;;1.10;0.70;;;18.80;53.30;;;;;;6287260;28;20194;-72
2023/03/15 14:46:47;;;;;;;1.10;0.55;;;18.80;53.40;;;;;;6292256;28;20029;-72
2023/03/15 14:49:48;;;;;;;4.43;0.65;;;18.80;53.30;;;;;;6277919;28;20115;-72
2023/03/15 14:52:50;;;;;;;1.77;0.65;;;18.80;53.30;;;;;;6294887;28;20389;-72
2023/03/15 14:55:51;;;;;;;3.30;0.68;;;18.80;53.40;;;;;;6269836;28;20024;-72
2023/03/15 14:58:54;;;;;;;1.33;0.50;;;18.80;53.40;;;;;;6285061;28;20562;-72
2023/03/15 15:01:57;;;;;;;1.45;0.60;;;18.80;53.30;;;;;;6310876;28;20032;-72
2023/03/15 15:05:02;;;;;;;0.85;0.57;;;18.80;53.30;;;;;;6317948;28;20540;-72
2023/03/15 15:08:13;;;;;;;1.17;0.60;;;18.80;53.30;;;;;;6317287;28;20030;-72
2023/03/15 15:11:14;;;;;;;1.27;0.50;;;18.80;53.40;;;;;;6300032;28;20616;-72
2023/03/15 15:14:15;;;;;;;1.23;0.60;;;18.80;53.30;;;;;;6282800;28;20494;-72
2023/03/15 15:17:16;;;;;;;1.52;0.80;;;18.80;53.30;;;;;;6274454;28;20032;-72
2023/03/15 15:20:16;;;;;;;2.10;0.70;;;18.80;53.30;;;;;;6307065;28;20029;-72
2023/03/15 15:23:20;;;;;;;1.65;0.70;;;18.80;53.30;;;;;;6264775;28;20074;-72
2023/03/15 15:26:24;;;;;;;3.25;0.70;;;18.80;53.40;;;;;;6296639;28;20115;-70
2023/03/15 15:29:26;;;;;;;0.97;0.50;;;18.80;53.30;;;;;;6311913;28;20069;-71
2023/03/15 15:32:27;;;;;;;1.05;0.57;;;18.80;53.30;;;;;;6287184;28;20025;-71
2023/03/15 15:35:30;;;;;;;1.25;0.60;;;18.80;53.30;;;;;;6280994;28;20031;-71
2023/03/15 15:38:37;;;;;;;1.77;0.50;;;18.80;53.40;;;;;;6298125;28;20103;-72
2023/03/15 15:41:37;;;;;;;1.25;0.63;;;18.80;53.40;;;;;;6281387;28;20094;-71
2023/03/15 15:44:38;;;;;;;1.60;0.50;;;18.80;53.30;;;;;;6311541;28;20508;-72
2023/03/15 15:47:39;;;;;;;1.27;0.60;;;18.80;53.40;;;;;;6300371;28;20037;-72
2023/03/15 15:50:40;;;;;;;1.45;0.93;;;18.80;53.30;;;;;;6293001;28;20748;-71
2023/03/15 15:53:42;;;;;;;0.60;0.50;;;18.80;53.30;;;;;;6280264;28;20025;-70
2023/03/15 15:56:50;;;;;;;0.60;0.50;;;18.80;53.40;;;;;;6305534;28;20472;-72
2023/03/15 15:59:51;;;;;;;0.98;0.60;;;18.80;53.40;;;;;;6320819;28;20028;-71
2023/03/15 16:02:54;;;;;;;1.08;0.63;;;18.80;53.40;;;;;;6305321;28;20025;-72
2023/03/15 16:05:55;;;;;;;1.15;0.70;;;18.80;53.40;;;;;;6279792;28;20036;-72
2023/03/15 16:08:56;;;;;;;1.17;0.65;;;18.80;53.40;;;;;;6283949;28;20144;-73
2023/03/15 16:11:57;;;;;;;1.00;0.50;;;18.80;53.40;;;;;;6304992;28;20481;-70
2023/03/15 16:14:58;;;;;;;3.47;0.50;;;18.80;53.40;;;;;;6291314;28;20436;-73
2023/03/15 16:17:58;;;;;;;1.52;0.70;;;18.80;53.40;;;;;;6295935;28;20035;-73
2023/03/15 16:20:59;;;;;;;1.30;0.60;;;18.80;53.40;;;;;;6299056;28;20039;-71
2023/03/15 16:24:25;;;;;;;1.15;0.60;;;18.80;53.20;;;;;;6282022;28;21286;-71
2023/03/15 16:27:26;;;;;;;;;;;18.80;53.10;;;;;;6310659;28;20108;-72
2023/03/15 16:30:29;;;;;;;3.53;0.80;;;18.80;53.20;;;;;;6300445;28;20277;-71
2023/03/15 16:33:33;;;;;;;1.35;0.80;;;18.80;53.30;;;;;;6283394;28;20025;-72
2023/03/15 16:36:34;;;;;;;1.70;0.75;;;18.80;53.20;;;;;;6277946;28;20028;-72
2023/03/15 16:39:36;;;;;;;1.52;0.60;;;18.80;53.20;;;;;;6298410;28;20020;-70
2023/03/15 16:42:37;;;;;;;5.15;0.85;;;18.80;53.30;;;;;;6303245;28;20035;-70
2023/03/15 16:45:38;;;;;;;2.47;1.02;;;18.80;53.20;;;;;;6321815;28;20047;-70
2023/03/15 16:48:39;;;;;;;1.20;0.55;;;18.80;53.20;;;;;;6299310;28;20025;-70
2023/03/15 16:51:44;;;;;;;2.97;0.95;;;18.80;53.20;;;;;;6308569;28;20087;-71
2023/03/15 16:54:45;;;;;;;;;;;18.80;53.20;;;;;;6304451;28;20037;-71
2023/03/15 16:57:45;;;;;;;1.92;0.82;;;18.80;53.20;;;;;;6296965;28;20014;-70
2023/03/15 17:00:46;;;;;;;1.70;0.77;;;18.70;53.20;;;;;;6301609;28;20385;-70
2023/03/15 17:03:47;;;;;;;3.33;0.88;;;18.80;52.60;;;;;;6302694;28;20020;-70
2023/03/15 17:06:48;;;;;;;2.15;0.80;;;18.80;52.00;;;;;;6276508;28;20082;-70
2023/03/15 17:09:51;;;;;;;1.20;0.75;;;18.80;52.50;;;;;;6295572;28;20428;-70
2023/03/15 17:13:40;;;;;;;1.52;0.68;;;18.80;52.60;;;;;;6292764;28;20063;-70
2023/03/15 17:16:46;;;;;;;1.73;0.73;;;18.80;52.60;;;;;;6315967;28;20023;-71
2023/03/15 17:19:58;;;;;;;1.70;0.88;;;18.80;52.70;;;;;;6315099;28;20028;-71
2023/03/15 17:23:11;;;;;;;1.95;0.75;;;18.80;52.80;;;;;;6283356;28;20066;-70
2023/03/15 17:26:18;;;;;;;1.25;0.60;;;18.80;52.90;;;;;;6299989;28;20107;-70
2023/03/15 17:29:20;;;;;;;1.00;0.57;;;18.80;52.90;;;;;;6307186;28;20028;-72
2023/03/15 17:32:20;;;;;;;1.15;0.60;;;18.80;52.90;;;;;;6317759;28;20031;-70
2023/03/15 17:35:26;;;;;;;0.93;0.50;;;18.80;52.90;;;;;;6307017;28;20016;-71
2023/03/15 17:38:31;;;;;;;1.08;0.60;;;18.80;52.90;;;;;;6292191;28;20036;-71
2023/03/15 17:41:33;;;;;;;;;;;18.80;52.90;;;;;;6303060;28;20020;-72
2023/03/15 17:44:33;;;;;;;1.75;0.60;;;18.80;52.90;;;;;;6313954;28;19919;-71
2023/03/15 17:47:34;;;;;;;1.15;0.80;;;18.80;52.90;;;;;;6311099;28;20576;-69
2023/03/15 17:50:36;;;;;;;0.88;0.60;;;18.80;52.90;;;;;;6295462;28;20081;-70
2023/03/15 17:53:36;;;;;;;1.73;0.70;;;18.80;52.90;;;;;;6292063;28;20554;-73
2023/03/15 17:56:37;;;;;;;1.20;0.60;;;18.80;52.90;;;;;;6300807;28;20036;-70
2023/03/15 17:59:38;;;;;;;1.40;0.60;;;18.80;53.00;;;;;;6291200;28;20104;-71
2023/03/15 18:02:40;;;;;;;0.68;0.50;;;18.80;52.90;;;;;;6280049;28;20078;-71
2023/03/15 18:05:42;;;;;;;2.35;0.80;;;18.80;53.70;;;;;;6291659;28;20096;-70
2023/03/15 18:08:43;;;;;;;1.55;0.70;;;18.80;53.00;;;;;;6291828;28;20032;-71
2023/03/15 18:11:45;;;;;;;0.60;0.50;;;18.80;53.70;;;;;;6291259;28;20096;-71
2023/03/15 18:14:46;;;;;;;2.17;0.90;;;18.80;53.00;;;;;;6291567;28;20071;-71
2023/03/15 18:17:49;;;;;;;1.42;0.90;;;18.80;53.00;;;;;;6306364;28;20473;-71
2023/03/15 18:20:50;;;;;;;3.08;0.80;;;18.80;53.00;;;;;;6317452;28;20564;-75
2023/03/15 18:23:51;;;;;;;1.85;1.10;;;18.80;53.00;;;;;;6306371;28;20024;-72
2023/03/15 18:26:52;;;;;;;2.70;1.08;;;18.80;53.00;;;;;;6296326;28;20532;-72
2023/03/15 18:29:53;;;;;;;2.75;1.35;;;18.80;52.70;;;;;;6316833;28;20025;-71
2023/03/15 18:32:55;;;;;;;2.30;1.10;;;18.80;52.80;;;;;;6317044;28;20434;-71
2023/03/15 18:35:56;;;;;;;2.70;1.33;;;18.80;52.90;;;;;;6293595;28;20074;-73
2023/03/15 18:38:57;;;;;;;2.42;1.23;;;18.80;52.80;;;;;;6265510;28;20052;-70
2023/03/15 18:41:58;;;;;;;2.42;1.48;;;18.80;52.80;;;;;;6269868;28;20107;-71
2023/03/15 18:44:58;;;;;;;3.15;1.30;;;18.80;52.90;;;;;;6291347;28;20502;-71
2023/03/15 18:47:59;;;;;;;2.10;1.25;;;18.80;52.90;;;;;;6271720;28;20025;-71
2023/03/15 18:51:00;;;;;;;2.80;1.23;;;18.80;52.90;;;;;;6265577;28;20029;-70
2023/03/15 18:54:09;;;;;;;5.95;1.30;;;18.80;52.90;;;;;;6269054;28;20017;-70
2023/03/15 18:57:40;;;;;;;2.90;1.08;;;18.80;52.90;;;;;;6249424;28;20410;-70